sensor_id;sensor_type;location;lat;lon;timestamp;P1;durP1;ratioP1;P2;durP2;ratioP2
7156;SDS011;3620;49.862;8.758;2022-07-29T00:01:06;0.57;;;0.57;;
7156;SDS011;3620;49.862;8.758;2022-07-29T00:03:33;0.50;;;0.50;;
7156;SDS011;3620;49.862;8.758;2022-07-29T00:06:01;0.53;;;0.53;;
7156;SDS011;3620;49.862;8.758;2022-07-29T00:08:28;0.50;;;0.50;;
7156;SDS011;3620;49.862;8.758;2022-07-29T00:10:55;0.50;;;0.50;;
7156;SDS011;3620;49.862;8.758;2022-07-29T00:13:21;0.50;;;0.50;;
7156;SDS011;3620;49.862;8.758;2022-07-29T00:15:48;0.53;;;0.53;;
7156;SDS011;3620;49.862;8.758;2022-07-29T00:18:15;0.50;;;0.50;;
7156;SDS011;3620;49.862;8.758;2022-07-29T00:20:41;0.50;;;0.50;;
7156;SDS011;3620;49.862;8.758;2022-07-29T00:23:09;0.50;;;0.50;;
7156;SDS011;3620;49.862;8.758;2022-07-29T00:25:36;0.50;;;0.50;;
7156;SDS011;3620;49.862;8.758;2022-07-29T00:28:03;0.53;;;0.53;;
7156;SDS011;3620;49.862;8.758;2022-07-29T00:30:30;0.50;;;0.50;;
7156;SDS011;3620;49.862;8.758;2022-07-29T00:32:57;0.50;;;0.50;;
7156;SDS011;3620;49.862;8.758;2022-07-29T00:35:24;0.50;;;0.50;;
7156;SDS011;3620;49.862;8.758;2022-07-29T00:38:09;0.50;;;0.50;;
7156;SDS011;3620;49.862;8.758;2022-07-29T00:40:36;0.50;;;0.50;;
7156;SDS011;3620;49.862;8.758;2022-07-29T00:43:03;0.50;;;0.50;;
7156;SDS011;3620;49.862;8.758;2022-07-29T00:45:29;0.50;;;0.50;;
7156;SDS011;3620;49.862;8.758;2022-07-29T00:47:56;0.50;;;0.50;;
7156;SDS011;3620;49.862;8.758;2022-07-29T00:50:23;0.50;;;0.50;;
7156;SDS011;3620;49.862;8.758;2022-07-29T00:52:50;0.50;;;0.50;;
7156;SDS011;3620;49.862;8.758;2022-07-29T00:55:20;0.60;;;0.60;;
7156;SDS011;3620;49.862;8.758;2022-07-29T00:57:47;0.50;;;0.50;;
7156;SDS011;3620;49.862;8.758;2022-07-29T01:00:15;0.60;;;0.60;;
7156;SDS011;3620;49.862;8.758;2022-07-29T01:02:44;0.50;;;0.50;;
7156;SDS011;3620;49.862;8.758;2022-07-29T01:05:13;0.50;;;0.50;;
7156;SDS011;3620;49.862;8.758;2022-07-29T01:07:40;0.50;;;0.50;;
7156;SDS011;3620;49.862;8.758;2022-07-29T01:10:09;0.50;;;0.50;;
7156;SDS011;3620;49.862;8.758;2022-07-29T01:12:37;0.50;;;0.50;;
7156;SDS011;3620;49.862;8.758;2022-07-29T01:15:06;0.50;;;0.50;;
7156;SDS011;3620;49.862;8.758;2022-07-29T01:17:36;0.50;;;0.50;;
7156;SDS011;3620;49.862;8.758;2022-07-29T01:20:10;0.60;;;0.60;;
7156;SDS011;3620;49.862;8.758;2022-07-29T01:25:50;0.50;;;0.50;;
7156;SDS011;3620;49.862;8.758;2022-07-29T01:28:47;0.53;;;0.53;;
7156;SDS011;3620;49.862;8.758;2022-07-29T01:31:25;0.50;;;0.50;;
7156;SDS011;3620;49.862;8.758;2022-07-29T01:33:58;0.50;;;0.50;;
7156;SDS011;3620;49.862;8.758;2022-07-29T01:36:30;0.50;;;0.50;;
7156;SDS011;3620;49.862;8.758;2022-07-29T01:39:03;0.50;;;0.50;;
7156;SDS011;3620;49.862;8.758;2022-07-29T01:41:34;0.60;;;0.60;;
7156;SDS011;3620;49.862;8.758;2022-07-29T01:44:07;0.50;;;0.50;;
7156;SDS011;3620;49.862;8.758;2022-07-29T01:46:39;0.60;;;0.60;;
7156;SDS011;3620;49.862;8.758;2022-07-29T01:49:11;0.60;;;0.60;;
7156;SDS011;3620;49.862;8.758;2022-07-29T01:51:41;0.60;;;0.60;;
7156;SDS011;3620;49.862;8.758;2022-07-29T01:54:14;0.50;;;0.50;;
7156;SDS011;3620;49.862;8.758;2022-07-29T01:56:47;0.60;;;0.60;;
7156;SDS011;3620;49.862;8.758;2022-07-29T01:59:17;0.50;;;0.50;;
7156;SDS011;3620;49.862;8.758;2022-07-29T02:01:45;0.50;;;0.50;;
7156;SDS011;3620;49.862;8.758;2022-07-29T02:04:14;0.40;;;0.40;;
7156;SDS011;3620;49.862;8.758;2022-07-29T02:06:42;0.60;;;0.60;;
7156;SDS011;3620;49.862;8.758;2022-07-29T02:09:11;0.60;;;0.60;;
7156;SDS011;3620;49.862;8.758;2022-07-29T02:11:40;0.50;;;0.50;;
7156;SDS011;3620;49.862;8.758;2022-07-29T02:14:14;0.60;;;0.60;;
7156;SDS011;3620;49.862;8.758;2022-07-29T02:16:44;0.60;;;0.60;;
7156;SDS011;3620;49.862;8.758;2022-07-29T02:19:13;0.60;;;0.60;;
7156;SDS011;3620;49.862;8.758;2022-07-29T02:21:42;0.60;;;0.60;;
7156;SDS011;3620;49.862;8.758;2022-07-29T02:24:11;0.50;;;0.50;;
7156;SDS011;3620;49.862;8.758;2022-07-29T02:26:39;0.50;;;0.50;;
7156;SDS011;3620;49.862;8.758;2022-07-29T02:29:08;0.60;;;0.60;;
7156;SDS011;3620;49.862;8.758;2022-07-29T02:31:38;0.60;;;0.60;;
7156;SDS011;3620;49.862;8.758;2022-07-29T02:34:09;0.60;;;0.60;;
7156;SDS011;3620;49.862;8.758;2022-07-29T02:36:37;0.50;;;0.50;;
7156;SDS011;3620;49.862;8.758;2022-07-29T02:39:05;0.50;;;0.50;;
7156;SDS011;3620;49.862;8.758;2022-07-29T02:41:35;0.50;;;0.50;;
7156;SDS011;3620;49.862;8.758;2022-07-29T02:44:08;0.50;;;0.50;;
7156;SDS011;3620;49.862;8.758;2022-07-29T02:46:42;0.50;;;0.50;;
7156;SDS011;3620;49.862;8.758;2022-07-29T02:49:16;0.60;;;0.60;;
7156;SDS011;3620;49.862;8.758;2022-07-29T02:51:49;0.50;;;0.50;;
7156;SDS011;3620;49.862;8.758;2022-07-29T02:54:22;0.50;;;0.50;;
7156;SDS011;3620;49.862;8.758;2022-07-29T02:57:00;0.50;;;0.50;;
7156;SDS011;3620;49.862;8.758;2022-07-29T02:59:32;0.60;;;0.60;;
7156;SDS011;3620;49.862;8.758;2022-07-29T03:02:02;0.60;;;0.60;;
7156;SDS011;3620;49.862;8.758;2022-07-29T03:04:32;0.60;;;0.60;;
7156;SDS011;3620;49.862;8.758;2022-07-29T03:07:01;0.60;;;0.60;;
7156;SDS011;3620;49.862;8.758;2022-07-29T03:09:29;0.60;;;0.60;;
7156;SDS011;3620;49.862;8.758;2022-07-29T03:11:57;0.60;;;0.60;;
7156;SDS011;3620;49.862;8.758;2022-07-29T03:14:24;0.50;;;0.50;;
7156;SDS011;3620;49.862;8.758;2022-07-29T03:16:52;0.50;;;0.50;;
7156;SDS011;3620;49.862;8.758;2022-07-29T03:19:19;0.60;;;0.60;;
7156;SDS011;3620;49.862;8.758;2022-07-29T03:21:48;0.50;;;0.50;;
7156;SDS011;3620;49.862;8.758;2022-07-29T03:24:25;0.60;;;0.60;;
7156;SDS011;3620;49.862;8.758;2022-07-29T03:26:53;0.50;;;0.50;;
7156;SDS011;3620;49.862;8.758;2022-07-29T03:29:20;0.50;;;0.50;;
7156;SDS011;3620;49.862;8.758;2022-07-29T03:31:47;0.50;;;0.50;;
7156;SDS011;3620;49.862;8.758;2022-07-29T03:34:14;0.53;;;0.53;;
7156;SDS011;3620;49.862;8.758;2022-07-29T03:36:41;0.60;;;0.60;;
7156;SDS011;3620;49.862;8.758;2022-07-29T03:39:09;0.60;;;0.60;;
7156;SDS011;3620;49.862;8.758;2022-07-29T03:41:39;0.60;;;0.60;;
7156;SDS011;3620;49.862;8.758;2022-07-29T03:44:08;0.60;;;0.60;;
7156;SDS011;3620;49.862;8.758;2022-07-29T03:46:37;0.50;;;0.50;;
7156;SDS011;3620;49.862;8.758;2022-07-29T03:49:07;0.60;;;0.60;;
7156;SDS011;3620;49.862;8.758;2022-07-29T03:51:35;0.50;;;0.50;;
7156;SDS011;3620;49.862;8.758;2022-07-29T03:54:02;0.50;;;0.50;;
7156;SDS011;3620;49.862;8.758;2022-07-29T03:56:32;0.60;;;0.60;;
7156;SDS011;3620;49.862;8.758;2022-07-29T03:59:01;0.60;;;0.60;;
7156;SDS011;3620;49.862;8.758;2022-07-29T04:01:29;0.60;;;0.60;;
7156;SDS011;3620;49.862;8.758;2022-07-29T04:03:58;0.60;;;0.60;;
7156;SDS011;3620;49.862;8.758;2022-07-29T04:06:26;0.60;;;0.60;;
7156;SDS011;3620;49.862;8.758;2022-07-29T04:08:53;0.50;;;0.50;;
7156;SDS011;3620;49.862;8.758;2022-07-29T04:11:19;0.57;;;0.57;;
7156;SDS011;3620;49.862;8.758;2022-07-29T04:13:48;0.50;;;0.50;;
7156;SDS011;3620;49.862;8.758;2022-07-29T04:16:14;0.60;;;0.60;;
7156;SDS011;3620;49.862;8.758;2022-07-29T04:18:41;0.50;;;0.50;;
7156;SDS011;3620;49.862;8.758;2022-07-29T04:21:08;0.60;;;0.60;;
7156;SDS011;3620;49.862;8.758;2022-07-29T04:23:34;0.60;;;0.60;;
7156;SDS011;3620;49.862;8.758;2022-07-29T04:26:01;0.60;;;0.60;;
7156;SDS011;3620;49.862;8.758;2022-07-29T04:28:28;0.60;;;0.60;;
7156;SDS011;3620;49.862;8.758;2022-07-29T04:30:56;0.50;;;0.50;;
7156;SDS011;3620;49.862;8.758;2022-07-29T04:33:23;0.60;;;0.60;;
7156;SDS011;3620;49.862;8.758;2022-07-29T04:35:49;0.50;;;0.50;;
7156;SDS011;3620;49.862;8.758;2022-07-29T04:38:16;0.60;;;0.60;;
7156;SDS011;3620;49.862;8.758;2022-07-29T04:40:43;0.60;;;0.60;;
7156;SDS011;3620;49.862;8.758;2022-07-29T04:43:09;0.50;;;0.50;;
7156;SDS011;3620;49.862;8.758;2022-07-29T04:45:36;0.60;;;0.60;;
7156;SDS011;3620;49.862;8.758;2022-07-29T04:48:04;0.60;;;0.60;;
7156;SDS011;3620;49.862;8.758;2022-07-29T04:50:31;0.60;;;0.60;;
7156;SDS011;3620;49.862;8.758;2022-07-29T04:52:58;0.60;;;0.60;;
7156;SDS011;3620;49.862;8.758;2022-07-29T04:55:25;0.50;;;0.50;;
7156;SDS011;3620;49.862;8.758;2022-07-29T04:57:52;0.60;;;0.60;;
7156;SDS011;3620;49.862;8.758;2022-07-29T05:00:18;0.60;;;0.60;;
7156;SDS011;3620;49.862;8.758;2022-07-29T05:02:45;0.60;;;0.60;;
7156;SDS011;3620;49.862;8.758;2022-07-29T05:05:13;0.60;;;0.60;;
7156;SDS011;3620;49.862;8.758;2022-07-29T05:07:40;0.60;;;0.60;;
7156;SDS011;3620;49.862;8.758;2022-07-29T05:10:07;0.60;;;0.60;;
7156;SDS011;3620;49.862;8.758;2022-07-29T05:12:35;0.57;;;0.57;;
7156;SDS011;3620;49.862;8.758;2022-07-29T05:15:02;0.50;;;0.50;;
7156;SDS011;3620;49.862;8.758;2022-07-29T05:17:29;0.50;;;0.50;;
7156;SDS011;3620;49.862;8.758;2022-07-29T05:19:55;0.60;;;0.60;;
7156;SDS011;3620;49.862;8.758;2022-07-29T05:22:23;0.50;;;0.50;;
7156;SDS011;3620;49.862;8.758;2022-07-29T05:24:50;0.60;;;0.60;;
7156;SDS011;3620;49.862;8.758;2022-07-29T05:27:16;0.60;;;0.60;;
7156;SDS011;3620;49.862;8.758;2022-07-29T05:29:43;0.60;;;0.60;;
7156;SDS011;3620;49.862;8.758;2022-07-29T05:32:10;0.60;;;0.60;;
7156;SDS011;3620;49.862;8.758;2022-07-29T05:34:37;0.70;;;0.70;;
7156;SDS011;3620;49.862;8.758;2022-07-29T05:37:03;0.60;;;0.60;;
7156;SDS011;3620;49.862;8.758;2022-07-29T05:39:32;0.50;;;0.50;;
7156;SDS011;3620;49.862;8.758;2022-07-29T05:41:58;0.70;;;0.70;;
7156;SDS011;3620;49.862;8.758;2022-07-29T05:44:25;0.60;;;0.60;;
7156;SDS011;3620;49.862;8.758;2022-07-29T05:46:52;0.60;;;0.60;;
7156;SDS011;3620;49.862;8.758;2022-07-29T05:49:18;0.60;;;0.60;;
7156;SDS011;3620;49.862;8.758;2022-07-29T05:51:45;0.60;;;0.60;;
7156;SDS011;3620;49.862;8.758;2022-07-29T05:54:13;0.60;;;0.60;;
7156;SDS011;3620;49.862;8.758;2022-07-29T05:56:41;0.60;;;0.60;;
7156;SDS011;3620;49.862;8.758;2022-07-29T05:59:08;0.50;;;0.50;;
7156;SDS011;3620;49.862;8.758;2022-07-29T06:01:35;0.60;;;0.60;;
7156;SDS011;3620;49.862;8.758;2022-07-29T06:04:04;0.50;;;0.50;;
7156;SDS011;3620;49.862;8.758;2022-07-29T06:06:31;0.57;;;0.57;;
7156;SDS011;3620;49.862;8.758;2022-07-29T06:08:58;0.50;;;0.50;;
7156;SDS011;3620;49.862;8.758;2022-07-29T06:11:25;0.60;;;0.60;;
7156;SDS011;3620;49.862;8.758;2022-07-29T06:13:53;0.60;;;0.60;;
7156;SDS011;3620;49.862;8.758;2022-07-29T06:16:19;0.60;;;0.60;;
7156;SDS011;3620;49.862;8.758;2022-07-29T06:18:46;0.60;;;0.60;;
7156;SDS011;3620;49.862;8.758;2022-07-29T06:21:13;0.60;;;0.60;;
7156;SDS011;3620;49.862;8.758;2022-07-29T06:23:40;0.60;;;0.60;;
7156;SDS011;3620;49.862;8.758;2022-07-29T06:26:07;0.60;;;0.60;;
7156;SDS011;3620;49.862;8.758;2022-07-29T06:28:34;0.70;;;0.70;;
7156;SDS011;3620;49.862;8.758;2022-07-29T06:31:02;0.60;;;0.60;;
7156;SDS011;3620;49.862;8.758;2022-07-29T06:33:29;0.60;;;0.60;;
7156;SDS011;3620;49.862;8.758;2022-07-29T06:35:56;0.50;;;0.50;;
7156;SDS011;3620;49.862;8.758;2022-07-29T06:38:23;0.50;;;0.50;;
7156;SDS011;3620;49.862;8.758;2022-07-29T06:40:49;0.60;;;0.60;;
7156;SDS011;3620;49.862;8.758;2022-07-29T06:43:29;0.50;;;0.50;;
7156;SDS011;3620;49.862;8.758;2022-07-29T06:45:59;0.53;;;0.53;;
7156;SDS011;3620;49.862;8.758;2022-07-29T06:48:28;0.60;;;0.60;;
7156;SDS011;3620;49.862;8.758;2022-07-29T06:50:55;0.57;;;0.57;;
7156;SDS011;3620;49.862;8.758;2022-07-29T06:53:22;0.50;;;0.50;;
7156;SDS011;3620;49.862;8.758;2022-07-29T06:55:49;0.60;;;0.60;;
7156;SDS011;3620;49.862;8.758;2022-07-29T06:58:16;0.50;;;0.50;;
7156;SDS011;3620;49.862;8.758;2022-07-29T07:00:45;0.50;;;0.50;;
7156;SDS011;3620;49.862;8.758;2022-07-29T07:03:13;0.50;;;0.50;;
7156;SDS011;3620;49.862;8.758;2022-07-29T07:05:41;0.40;;;0.40;;
7156;SDS011;3620;49.862;8.758;2022-07-29T07:08:07;0.50;;;0.50;;
7156;SDS011;3620;49.862;8.758;2022-07-29T07:10:34;0.50;;;0.50;;
7156;SDS011;3620;49.862;8.758;2022-07-29T07:13:01;0.50;;;0.50;;
7156;SDS011;3620;49.862;8.758;2022-07-29T07:15:28;0.50;;;0.50;;
7156;SDS011;3620;49.862;8.758;2022-07-29T07:17:55;0.50;;;0.50;;
7156;SDS011;3620;49.862;8.758;2022-07-29T07:20:24;0.50;;;0.50;;
7156;SDS011;3620;49.862;8.758;2022-07-29T07:22:51;0.50;;;0.50;;
7156;SDS011;3620;49.862;8.758;2022-07-29T07:25:18;0.43;;;0.43;;
7156;SDS011;3620;49.862;8.758;2022-07-29T07:27:44;0.50;;;0.50;;
7156;SDS011;3620;49.862;8.758;2022-07-29T07:30:11;0.57;;;0.57;;
7156;SDS011;3620;49.862;8.758;2022-07-29T07:32:39;0.40;;;0.40;;
7156;SDS011;3620;49.862;8.758;2022-07-29T07:35:06;0.50;;;0.50;;
7156;SDS011;3620;49.862;8.758;2022-07-29T07:37:36;0.40;;;0.40;;
7156;SDS011;3620;49.862;8.758;2022-07-29T07:40:04;0.50;;;0.50;;
7156;SDS011;3620;49.862;8.758;2022-07-29T07:42:31;0.50;;;0.50;;
7156;SDS011;3620;49.862;8.758;2022-07-29T07:44:58;0.43;;;0.43;;
7156;SDS011;3620;49.862;8.758;2022-07-29T07:47:26;0.50;;;0.50;;
7156;SDS011;3620;49.862;8.758;2022-07-29T07:49:52;0.40;;;0.40;;
7156;SDS011;3620;49.862;8.758;2022-07-29T07:52:20;0.50;;;0.50;;
7156;SDS011;3620;49.862;8.758;2022-07-29T07:54:49;0.40;;;0.40;;
7156;SDS011;3620;49.862;8.758;2022-07-29T07:57:16;0.40;;;0.40;;
7156;SDS011;3620;49.862;8.758;2022-07-29T07:59:43;0.40;;;0.40;;
7156;SDS011;3620;49.862;8.758;2022-07-29T08:02:10;0.40;;;0.40;;
7156;SDS011;3620;49.862;8.758;2022-07-29T08:04:37;0.50;;;0.50;;
7156;SDS011;3620;49.862;8.758;2022-07-29T08:07:05;0.50;;;0.50;;
7156;SDS011;3620;49.862;8.758;2022-07-29T08:09:33;0.50;;;0.50;;
7156;SDS011;3620;49.862;8.758;2022-07-29T08:12:02;0.40;;;0.40;;
7156;SDS011;3620;49.862;8.758;2022-07-29T08:14:31;0.50;;;0.50;;
7156;SDS011;3620;49.862;8.758;2022-07-29T08:16:58;0.40;;;0.40;;
7156;SDS011;3620;49.862;8.758;2022-07-29T08:19:25;0.50;;;0.50;;
7156;SDS011;3620;49.862;8.758;2022-07-29T08:21:52;0.40;;;0.40;;
7156;SDS011;3620;49.862;8.758;2022-07-29T08:24:19;0.40;;;0.40;;
7156;SDS011;3620;49.862;8.758;2022-07-29T08:27:05;0.40;;;0.40;;
7156;SDS011;3620;49.862;8.758;2022-07-29T08:29:32;0.40;;;0.40;;
7156;SDS011;3620;49.862;8.758;2022-07-29T08:31:59;0.50;;;0.50;;
7156;SDS011;3620;49.862;8.758;2022-07-29T08:34:26;0.50;;;0.50;;
7156;SDS011;3620;49.862;8.758;2022-07-29T08:36:53;0.50;;;0.50;;
7156;SDS011;3620;49.862;8.758;2022-07-29T08:39:20;0.40;;;0.40;;
7156;SDS011;3620;49.862;8.758;2022-07-29T08:41:47;0.40;;;0.40;;
7156;SDS011;3620;49.862;8.758;2022-07-29T08:44:16;0.40;;;0.40;;
7156;SDS011;3620;49.862;8.758;2022-07-29T08:46:43;0.40;;;0.40;;
7156;SDS011;3620;49.862;8.758;2022-07-29T08:49:10;0.40;;;0.40;;
7156;SDS011;3620;49.862;8.758;2022-07-29T08:51:38;0.40;;;0.40;;
7156;SDS011;3620;49.862;8.758;2022-07-29T08:54:06;0.40;;;0.40;;
7156;SDS011;3620;49.862;8.758;2022-07-29T08:56:35;0.30;;;0.30;;
7156;SDS011;3620;49.862;8.758;2022-07-29T08:59:02;0.30;;;0.30;;
7156;SDS011;3620;49.862;8.758;2022-07-29T09:01:32;0.40;;;0.40;;
7156;SDS011;3620;49.862;8.758;2022-07-29T09:03:59;0.40;;;0.40;;
7156;SDS011;3620;49.862;8.758;2022-07-29T09:06:30;0.40;;;0.40;;
7156;SDS011;3620;49.862;8.758;2022-07-29T09:09:00;0.50;;;0.50;;
7156;SDS011;3620;49.862;8.758;2022-07-29T09:11:27;0.50;;;0.50;;
7156;SDS011;3620;49.862;8.758;2022-07-29T09:13:54;0.33;;;0.33;;
7156;SDS011;3620;49.862;8.758;2022-07-29T09:16:21;0.40;;;0.40;;
7156;SDS011;3620;49.862;8.758;2022-07-29T09:18:49;0.40;;;0.40;;
7156;SDS011;3620;49.862;8.758;2022-07-29T09:21:16;0.40;;;0.40;;
7156;SDS011;3620;49.862;8.758;2022-07-29T09:24:02;0.40;;;0.40;;
7156;SDS011;3620;49.862;8.758;2022-07-29T09:26:32;0.40;;;0.40;;
7156;SDS011;3620;49.862;8.758;2022-07-29T09:29:00;0.50;;;0.50;;
7156;SDS011;3620;49.862;8.758;2022-07-29T09:31:36;0.40;;;0.40;;
7156;SDS011;3620;49.862;8.758;2022-07-29T09:34:05;0.50;;;0.50;;
7156;SDS011;3620;49.862;8.758;2022-07-29T09:36:40;0.40;;;0.40;;
7156;SDS011;3620;49.862;8.758;2022-07-29T09:39:08;0.40;;;0.40;;
7156;SDS011;3620;49.862;8.758;2022-07-29T09:41:47;0.47;;;0.47;;
7156;SDS011;3620;49.862;8.758;2022-07-29T09:44:18;0.50;;;0.50;;
7156;SDS011;3620;49.862;8.758;2022-07-29T09:47:00;0.50;;;0.50;;
7156;SDS011;3620;49.862;8.758;2022-07-29T09:49:32;0.53;;;0.53;;
7156;SDS011;3620;49.862;8.758;2022-07-29T09:52:00;0.40;;;0.40;;
7156;SDS011;3620;49.862;8.758;2022-07-29T09:54:30;0.40;;;0.40;;
7156;SDS011;3620;49.862;8.758;2022-07-29T09:57:01;0.40;;;0.40;;
7156;SDS011;3620;49.862;8.758;2022-07-29T09:59:29;0.40;;;0.40;;
7156;SDS011;3620;49.862;8.758;2022-07-29T10:01:56;0.37;;;0.37;;
7156;SDS011;3620;49.862;8.758;2022-07-29T10:04:23;0.40;;;0.40;;
7156;SDS011;3620;49.862;8.758;2022-07-29T10:06:57;0.40;;;0.40;;
7156;SDS011;3620;49.862;8.758;2022-07-29T10:09:24;0.40;;;0.40;;
7156;SDS011;3620;49.862;8.758;2022-07-29T10:12:05;0.40;;;0.40;;
7156;SDS011;3620;49.862;8.758;2022-07-29T10:14:34;0.40;;;0.40;;
7156;SDS011;3620;49.862;8.758;2022-07-29T10:17:02;0.40;;;0.40;;
7156;SDS011;3620;49.862;8.758;2022-07-29T10:19:30;0.30;;;0.30;;
7156;SDS011;3620;49.862;8.758;2022-07-29T10:22:00;0.40;;;0.40;;
7156;SDS011;3620;49.862;8.758;2022-07-29T10:24:29;0.40;;;0.40;;
7156;SDS011;3620;49.862;8.758;2022-07-29T10:26:57;0.40;;;0.40;;
7156;SDS011;3620;49.862;8.758;2022-07-29T10:29:25;0.40;;;0.40;;
7156;SDS011;3620;49.862;8.758;2022-07-29T10:34:55;0.40;;;0.40;;
7156;SDS011;3620;49.862;8.758;2022-07-29T10:37:36;0.40;;;0.40;;
7156;SDS011;3620;49.862;8.758;2022-07-29T10:40:15;0.38;;;0.38;;
7156;SDS011;3620;49.862;8.758;2022-07-29T10:43:07;0.40;;;0.40;;
7156;SDS011;3620;49.862;8.758;2022-07-29T10:45:42;0.30;;;0.30;;
7156;SDS011;3620;49.862;8.758;2022-07-29T10:48:11;0.30;;;0.30;;
7156;SDS011;3620;49.862;8.758;2022-07-29T10:50:54;0.30;;;0.30;;
7156;SDS011;3620;49.862;8.758;2022-07-29T10:53:23;0.30;;;0.30;;
7156;SDS011;3620;49.862;8.758;2022-07-29T10:55:51;0.30;;;0.30;;
7156;SDS011;3620;49.862;8.758;2022-07-29T10:58:19;0.30;;;0.30;;
7156;SDS011;3620;49.862;8.758;2022-07-29T11:00:47;0.30;;;0.30;;
7156;SDS011;3620;49.862;8.758;2022-07-29T11:06:11;0.30;;;0.30;;
7156;SDS011;3620;49.862;8.758;2022-07-29T11:08:40;0.30;;;0.30;;
7156;SDS011;3620;49.862;8.758;2022-07-29T11:13:59;0.38;;;0.38;;
7156;SDS011;3620;49.862;8.758;2022-07-29T11:16:26;0.40;;;0.40;;
7156;SDS011;3620;49.862;8.758;2022-07-29T11:19:27;0.30;;;0.30;;
7156;SDS011;3620;49.862;8.758;2022-07-29T11:21:54;0.40;;;0.40;;
7156;SDS011;3620;49.862;8.758;2022-07-29T11:24:22;0.30;;;0.30;;
7156;SDS011;3620;49.862;8.758;2022-07-29T11:27:10;0.40;;;0.40;;
7156;SDS011;3620;49.862;8.758;2022-07-29T11:29:39;0.30;;;0.30;;
7156;SDS011;3620;49.862;8.758;2022-07-29T11:32:15;0.40;;;0.40;;
7156;SDS011;3620;49.862;8.758;2022-07-29T11:34:44;0.40;;;0.40;;
7156;SDS011;3620;49.862;8.758;2022-07-29T11:37:19;0.30;;;0.30;;
7156;SDS011;3620;49.862;8.758;2022-07-29T11:42:47;0.30;;;0.30;;
7156;SDS011;3620;49.862;8.758;2022-07-29T11:45:17;0.40;;;0.40;;
7156;SDS011;3620;49.862;8.758;2022-07-29T11:47:52;0.40;;;0.40;;
7156;SDS011;3620;49.862;8.758;2022-07-29T11:50:33;0.30;;;0.30;;
7156;SDS011;3620;49.862;8.758;2022-07-29T11:53:02;0.40;;;0.40;;
7156;SDS011;3620;49.862;8.758;2022-07-29T11:55:38;0.30;;;0.30;;
7156;SDS011;3620;49.862;8.758;2022-07-29T11:58:06;0.30;;;0.30;;
7156;SDS011;3620;49.862;8.758;2022-07-29T12:00:34;0.30;;;0.30;;
7156;SDS011;3620;49.862;8.758;2022-07-29T12:03:04;0.30;;;0.30;;
7156;SDS011;3620;49.862;8.758;2022-07-29T12:05:33;0.30;;;0.30;;
7156;SDS011;3620;49.862;8.758;2022-07-29T12:08:12;0.30;;;0.30;;
7156;SDS011;3620;49.862;8.758;2022-07-29T12:10:42;0.30;;;0.30;;
7156;SDS011;3620;49.862;8.758;2022-07-29T12:13:11;0.30;;;0.30;;
7156;SDS011;3620;49.862;8.758;2022-07-29T12:15:39;0.40;;;0.40;;
7156;SDS011;3620;49.862;8.758;2022-07-29T12:18:10;0.40;;;0.40;;
7156;SDS011;3620;49.862;8.758;2022-07-29T12:20:40;0.30;;;0.30;;
7156;SDS011;3620;49.862;8.758;2022-07-29T12:23:07;0.40;;;0.40;;
7156;SDS011;3620;49.862;8.758;2022-07-29T12:25:37;0.30;;;0.30;;
7156;SDS011;3620;49.862;8.758;2022-07-29T12:28:06;0.30;;;0.30;;
7156;SDS011;3620;49.862;8.758;2022-07-29T12:30:36;0.30;;;0.30;;
7156;SDS011;3620;49.862;8.758;2022-07-29T12:33:15;0.30;;;0.30;;
7156;SDS011;3620;49.862;8.758;2022-07-29T12:35:45;0.30;;;0.30;;
7156;SDS011;3620;49.862;8.758;2022-07-29T12:38:14;0.30;;;0.30;;
7156;SDS011;3620;49.862;8.758;2022-07-29T12:40:42;0.30;;;0.30;;
7156;SDS011;3620;49.862;8.758;2022-07-29T12:43:12;0.30;;;0.30;;
7156;SDS011;3620;49.862;8.758;2022-07-29T12:45:41;0.30;;;0.30;;
7156;SDS011;3620;49.862;8.758;2022-07-29T12:48:09;0.30;;;0.30;;
7156;SDS011;3620;49.862;8.758;2022-07-29T12:50:37;0.30;;;0.30;;
7156;SDS011;3620;49.862;8.758;2022-07-29T12:53:20;0.40;;;0.40;;
7156;SDS011;3620;49.862;8.758;2022-07-29T12:55:47;0.30;;;0.30;;
7156;SDS011;3620;49.862;8.758;2022-07-29T12:58:27;0.30;;;0.30;;
7156;SDS011;3620;49.862;8.758;2022-07-29T13:01:03;0.30;;;0.30;;
7156;SDS011;3620;49.862;8.758;2022-07-29T13:03:44;0.30;;;0.30;;
7156;SDS011;3620;49.862;8.758;2022-07-29T13:06:33;0.30;;;0.30;;
7156;SDS011;3620;49.862;8.758;2022-07-29T13:09:04;0.30;;;0.30;;
7156;SDS011;3620;49.862;8.758;2022-07-29T13:11:36;0.30;;;0.30;;
7156;SDS011;3620;49.862;8.758;2022-07-29T13:14:06;0.30;;;0.30;;
7156;SDS011;3620;49.862;8.758;2022-07-29T13:16:34;0.30;;;0.30;;
7156;SDS011;3620;49.862;8.758;2022-07-29T13:19:03;0.40;;;0.40;;
7156;SDS011;3620;49.862;8.758;2022-07-29T13:21:31;0.30;;;0.30;;
7156;SDS011;3620;49.862;8.758;2022-07-29T13:23:58;0.30;;;0.30;;
7156;SDS011;3620;49.862;8.758;2022-07-29T13:26:24;0.20;;;0.20;;
7156;SDS011;3620;49.862;8.758;2022-07-29T13:28:53;0.30;;;0.30;;
7156;SDS011;3620;49.862;8.758;2022-07-29T13:31:21;0.30;;;0.30;;
7156;SDS011;3620;49.862;8.758;2022-07-29T13:33:48;0.30;;;0.30;;
7156;SDS011;3620;49.862;8.758;2022-07-29T13:36:15;0.30;;;0.30;;
7156;SDS011;3620;49.862;8.758;2022-07-29T13:38:42;0.30;;;0.30;;
7156;SDS011;3620;49.862;8.758;2022-07-29T13:41:09;0.30;;;0.30;;
7156;SDS011;3620;49.862;8.758;2022-07-29T13:43:36;0.30;;;0.30;;
7156;SDS011;3620;49.862;8.758;2022-07-29T13:46:02;0.30;;;0.30;;
7156;SDS011;3620;49.862;8.758;2022-07-29T13:48:31;0.30;;;0.30;;
7156;SDS011;3620;49.862;8.758;2022-07-29T13:50:57;0.20;;;0.20;;
7156;SDS011;3620;49.862;8.758;2022-07-29T13:53:24;0.30;;;0.30;;
7156;SDS011;3620;49.862;8.758;2022-07-29T13:55:53;0.30;;;0.30;;
7156;SDS011;3620;49.862;8.758;2022-07-29T13:58:19;0.30;;;0.30;;
7156;SDS011;3620;49.862;8.758;2022-07-29T14:00:46;0.30;;;0.30;;
7156;SDS011;3620;49.862;8.758;2022-07-29T14:03:13;0.30;;;0.30;;
7156;SDS011;3620;49.862;8.758;2022-07-29T14:05:41;0.30;;;0.30;;
7156;SDS011;3620;49.862;8.758;2022-07-29T14:08:08;0.30;;;0.30;;
7156;SDS011;3620;49.862;8.758;2022-07-29T14:10:35;0.30;;;0.30;;
7156;SDS011;3620;49.862;8.758;2022-07-29T14:13:01;0.30;;;0.30;;
7156;SDS011;3620;49.862;8.758;2022-07-29T14:15:28;0.30;;;0.30;;
7156;SDS011;3620;49.862;8.758;2022-07-29T14:17:55;0.30;;;0.30;;
7156;SDS011;3620;49.862;8.758;2022-07-29T14:20:22;0.30;;;0.30;;
7156;SDS011;3620;49.862;8.758;2022-07-29T14:22:50;0.30;;;0.30;;
7156;SDS011;3620;49.862;8.758;2022-07-29T14:25:17;0.30;;;0.30;;
7156;SDS011;3620;49.862;8.758;2022-07-29T14:27:43;0.30;;;0.30;;
7156;SDS011;3620;49.862;8.758;2022-07-29T14:30:10;0.30;;;0.30;;
7156;SDS011;3620;49.862;8.758;2022-07-29T14:32:38;0.30;;;0.30;;
7156;SDS011;3620;49.862;8.758;2022-07-29T14:35:05;0.30;;;0.30;;
7156;SDS011;3620;49.862;8.758;2022-07-29T14:37:32;0.30;;;0.30;;
7156;SDS011;3620;49.862;8.758;2022-07-29T14:40:02;0.30;;;0.30;;
7156;SDS011;3620;49.862;8.758;2022-07-29T14:42:29;0.30;;;0.30;;
7156;SDS011;3620;49.862;8.758;2022-07-29T14:44:56;0.30;;;0.30;;
7156;SDS011;3620;49.862;8.758;2022-07-29T14:47:23;0.40;;;0.40;;
7156;SDS011;3620;49.862;8.758;2022-07-29T14:49:50;0.30;;;0.30;;
7156;SDS011;3620;49.862;8.758;2022-07-29T14:52:16;0.30;;;0.30;;
7156;SDS011;3620;49.862;8.758;2022-07-29T14:54:43;0.30;;;0.30;;
7156;SDS011;3620;49.862;8.758;2022-07-29T14:57:11;0.30;;;0.30;;
7156;SDS011;3620;49.862;8.758;2022-07-29T14:59:38;0.30;;;0.30;;
7156;SDS011;3620;49.862;8.758;2022-07-29T15:02:05;0.30;;;0.30;;
7156;SDS011;3620;49.862;8.758;2022-07-29T15:04:31;0.40;;;0.40;;
7156;SDS011;3620;49.862;8.758;2022-07-29T15:06:58;0.30;;;0.30;;
7156;SDS011;3620;49.862;8.758;2022-07-29T15:09:25;0.40;;;0.40;;
7156;SDS011;3620;49.862;8.758;2022-07-29T15:11:52;0.30;;;0.30;;
7156;SDS011;3620;49.862;8.758;2022-07-29T15:14:20;0.40;;;0.40;;
7156;SDS011;3620;49.862;8.758;2022-07-29T15:16:47;0.30;;;0.30;;
7156;SDS011;3620;49.862;8.758;2022-07-29T15:19:13;0.30;;;0.30;;
7156;SDS011;3620;49.862;8.758;2022-07-29T15:21:40;0.30;;;0.30;;
7156;SDS011;3620;49.862;8.758;2022-07-29T15:24:07;0.30;;;0.30;;
7156;SDS011;3620;49.862;8.758;2022-07-29T15:26:34;0.30;;;0.30;;
7156;SDS011;3620;49.862;8.758;2022-07-29T15:29:00;0.30;;;0.30;;
7156;SDS011;3620;49.862;8.758;2022-07-29T15:31:28;0.30;;;0.30;;
7156;SDS011;3620;49.862;8.758;2022-07-29T15:33:55;0.30;;;0.30;;
7156;SDS011;3620;49.862;8.758;2022-07-29T15:36:22;0.30;;;0.30;;
7156;SDS011;3620;49.862;8.758;2022-07-29T15:38:51;0.30;;;0.30;;
7156;SDS011;3620;49.862;8.758;2022-07-29T15:41:18;0.30;;;0.30;;